Aérodrome :
LOGIN :

S'inscrire | Disclaimer

   EN    FR    IT 

 










Légende :    VFR   VFR Marginal   IFR   IFR Intensif   IFR Très Intensif
Visi : 
Plafond : 
>= 8 km
>= 3000ft
5 à 8 km
1000 à 3000 ft
1500m à 5 km
500 à 1000 ft
800 à 1500m
200 à 500 ft
< 800m
< 200 ft
Symboles :   Orages  Brouillard  Fortes neiges  Fortes précipitations  Vent > 20 kt
SIGMETs :   Divers  Orages  Givrage  Turbulence  Onde Orograph.  Cendres Volcan.






- Altitude de l'aérodrome : 1416 ft
- Code IATA : ZRH


LSZH - Zurich

DERNIER METAR :
  • 260620Z 26008KT 5000 RA FEW009 SCT014 OVC042 08/07 Q1007 TEMPO 3000 +RA

METARs EXPIRÉS :
  • 260550Z 26009KT 5000 RA FEW009 SCT012 BKN045 08/07 Q1006 TEMPO 3000 +RA
  • 260520Z 27014KT 7000 -RA FEW013 BKN030 09/07 Q1005 TEMPO RA
  • 260450Z 26011KT 9999 FEW016 SCT030 BKN045 10/07 Q1004 TEMPO RA
  • 260420Z 28010KT 9999 FEW016 SCT020 BKN045 10/07 Q1004 TEMPO RA

TAF AMD TAF LSZH
Valide du 26 à 03h jusqu'au 27 à 09h UTC


260314Z 2603/2709 29008KT 9999 FEW010 SCT015 BKN030 TX08/2610Z TN05/2623Z TN05/2706Z
BECMG 2603/2606 RA
BECMG 2615/2618 NSW
ATIS : +41 43 816 2295 (DEP) +41 43 816 2294 (ARR)



MET'MAP, la Météo Aéronautique d'un coup d'oeil ! - Copyright ORBIFLY Décembre 2007 - Disclaimer

ORBIFLY MET'MAP TEAM :

Programmation & Développement : Alexandra Zaïnal
Sur une idée originale de : Baudouin d'Aumeries
Assistance à la programmation : Marc-Olivier Méhu
Soutien technique & logistique : Manuel Goepfert

Contact : metmap@orbifly.com




SOURCES & CREDITS :

   NOAA